PWSweather.com
Personal Weather Stations
Station Observations
IPODRAVI2
Croatia, Trnovec BartoloveckiHR

CroatiaTrnovec BartoloveckiHR

Lat: 46.2947, Lon: 16.3989

Elevation: 535

Station Type: Davis Vantage Pro2 plus

http://www.pljusak.com/trnovec1/wx.html

High Low Average
Temperature 41.6°F5.3°F 30.8°F-0.7°F 36.1°F2.3°F
Dew Point 36.7°F2.6°F 28.2°F-2.1°F 33.0°F0.6°F
Winds 8.1 mph SW13.0 mph SW Calm Calm 0.9 mph 1.4 mph
Wind Gusts 11.5 mph18.5 mph -- 1.7 mph2.7 mph
Humidity 93% 77% 88%
Pressure 29.80 in1009.10 in 29.50 in999.00 in -
Precipitation 0.21 in5.30 in - -
Hour Temp Dew Point Humidity Winds Wind Gusts Pressure Precip Precip Rate Daily Precip Total
12:00 AM 33.6°F0.9°C 30.7°F-0.7°C 89% Calm Calm 1.2 mph1.9 kmh 29.80 in1009.1 mb - 0.00 in0.0 mm 0.00 in0.0 mm
12:05 AM 33.7°F0.9°C 30.8°F-0.7°C 89% Calm Calm 1.2 mph1.9 kmh 29.80 in1009.1 mb - 0.00 in0.0 mm 0.00 in0.0 mm
12:10 AM 33.7°F0.9°C 30.8°F-0.7°C 89% Calm Calm -- 29.80 in1009.1 mb - 0.00 in0.0 mm 0.00 in0.0 mm
12:15 AM 33.8°F1.0°C 30.9°F-0.6°C 89% Calm Calm -- 29.80 in1009.1 mb - 0.00 in0.0 mm 0.00 in0.0 mm
12:20 AM 33.9°F1.1°C 31.0°F-0.6°C 89% Calm Calm -- 29.80 in1009.1 mb - 0.00 in0.0 mm 0.00 in0.0 mm
12:25 AM 33.9°F1.1°C 31.0°F-0.6°C 89% Calm Calm -- 29.80 in1009.1 mb - 0.00 in0.0 mm 0.00 in0.0 mm
12:30 AM 33.8°F1.0°C 30.6°F-0.8°C 88% Calm Calm -- 29.80 in1009.1 mb - 0.00 in0.0 mm 0.00 in0.0 mm
12:35 AM 33.8°F1.0°C 30.6°F-0.8°C 88% Calm Calm -- 29.80 in1009.1 mb - 0.00 in0.0 mm 0.00 in0.0 mm
12:40 AM 33.7°F0.9°C 30.5°F-0.8°C 88% Calm Calm -- 29.80 in1009.1 mb - 0.00 in0.0 mm 0.00 in0.0 mm
12:45 AM 33.7°F0.9°C 30.8°F-0.7°C 89% Calm Calm -- 29.80 in1009.1 mb - 0.00 in0.0 mm 0.00 in0.0 mm
12:50 AM 33.7°F0.9°C 30.5°F-0.8°C 88% Calm Calm -- 29.80 in1009.1 mb - 0.00 in0.0 mm 0.00 in0.0 mm
12:55 AM 33.7°F0.9°C 30.5°F-0.8°C 88% Calm Calm 1.2 mph1.9 kmh 29.80 in1009.1 mb - 0.00 in0.0 mm 0.00 in0.0 mm
01:00 AM 33.7°F0.9°C 30.5°F-0.8°C 88% Calm Calm -- 29.80 in1009.1 mb - 0.00 in0.0 mm 0.00 in0.0 mm
01:05 AM 33.7°F0.9°C 30.5°F-0.8°C 88% Calm Calm -- 29.80 in1009.1 mb - 0.00 in0.0 mm 0.00 in0.0 mm
01:10 AM 33.7°F0.9°C 30.8°F-0.7°C 89% Calm Calm 1.2 mph1.9 kmh 29.80 in1009.1 mb - 0.00 in0.0 mm 0.00 in0.0 mm
01:15 AM 33.7°F0.9°C 30.8°F-0.7°C 89% 1.2 mph E1.9 kmh E 3.5 mph5.6 kmh 29.80 in1009.1 mb - 0.00 in0.0 mm 0.00 in0.0 mm
01:20 AM 33.9°F1.1°C 30.7°F-0.7°C 88% 2.3 mph SE3.7 kmh SE 3.5 mph5.6 kmh 29.80 in1009.1 mb - 0.00 in0.0 mm 0.00 in0.0 mm
01:25 AM 34.2°F1.2°C 31.0°F-0.6°C 88% Calm Calm 2.3 mph3.7 kmh 29.80 in1009.1 mb - 0.00 in0.0 mm 0.00 in0.0 mm
01:30 AM 34.5°F1.4°C 31.3°F-0.4°C 88% 1.2 mph S1.9 kmh S 3.5 mph5.6 kmh 29.79 in1008.8 mb - 0.00 in0.0 mm 0.00 in0.0 mm
01:35 AM 34.9°F1.6°C 31.7°F-0.2°C 88% 2.3 mph S3.7 kmh S 3.5 mph5.6 kmh 29.79 in1008.8 mb - 0.00 in0.0 mm 0.00 in0.0 mm
01:40 AM 35.1°F1.7°C 31.6°F-0.2°C 87% 1.2 mph SW1.9 kmh SW 3.5 mph5.6 kmh 29.79 in1008.8 mb - 0.00 in0.0 mm 0.00 in0.0 mm
01:45 AM 35.2°F1.8°C 31.7°F-0.2°C 87% Calm Calm -- 29.79 in1008.8 mb - 0.00 in0.0 mm 0.00 in0.0 mm
01:50 AM 35.1°F1.7°C 31.3°F-0.4°C 86% Calm Calm -- 29.79 in1008.8 mb - 0.00 in0.0 mm 0.00 in0.0 mm
01:55 AM 34.9°F1.6°C 31.2°F-0.4°C 86% Calm Calm -- 29.80 in1009.1 mb - 0.00 in0.0 mm 0.00 in0.0 mm
02:00 AM 34.8°F1.6°C 31.3°F-0.4°C 87% Calm Calm -- 29.79 in1008.8 mb - 0.00 in0.0 mm 0.00 in0.0 mm
02:05 AM 34.6°F1.4°C 31.1°F-0.5°C 87% Calm Calm -- 29.80 in1009.1 mb - 0.00 in0.0 mm 0.00 in0.0 mm
02:10 AM 34.4°F1.3°C 30.9°F-0.6°C 87% Calm Calm -- 29.80 in1009.1 mb - 0.00 in0.0 mm 0.00 in0.0 mm
02:15 AM 34.2°F1.2°C 30.7°F-0.7°C 87% Calm Calm -- 29.80 in1009.1 mb - 0.00 in0.0 mm 0.00 in0.0 mm
02:20 AM 34.0°F1.1°C 30.6°F-0.8°C 87% Calm Calm -- 29.80 in1009.1 mb - 0.00 in0.0 mm 0.00 in0.0 mm
02:25 AM 33.8°F1.0°C 30.3°F-0.9°C 87% Calm Calm -- 29.80 in1009.1 mb - 0.00 in0.0 mm 0.00 in0.0 mm
02:30 AM 33.6°F0.9°C 30.4°F-0.9°C 88% Calm Calm 1.2 mph1.9 kmh 29.80 in1009.1 mb - 0.00 in0.0 mm 0.00 in0.0 mm
02:35 AM 33.4°F0.8°C 30.2°F-1.0°C 88% Calm Calm -- 29.80 in1009.1 mb - 0.00 in0.0 mm 0.00 in0.0 mm
02:40 AM 33.2°F0.7°C 30.1°F-1.1°C 88% Calm Calm -- 29.80 in1009.1 mb - 0.00 in0.0 mm 0.00 in0.0 mm
02:45 AM 33.1°F0.6°C 29.9°F-1.2°C 88% Calm Calm -- 29.80 in1009.1 mb - 0.00 in0.0 mm 0.00 in0.0 mm
02:50 AM 32.9°F0.5°C 29.8°F-1.2°C 88% Calm Calm -- 29.80 in1009.1 mb - 0.00 in0.0 mm 0.00 in0.0 mm
02:55 AM 32.8°F0.4°C 29.9°F-1.2°C 89% Calm Calm -- 29.80 in1009.1 mb - 0.00 in0.0 mm 0.00 in0.0 mm
03:00 AM 32.6°F0.3°C 29.7°F-1.3°C 89% Calm Calm -- 29.80 in1009.1 mb - 0.00 in0.0 mm 0.00 in0.0 mm
03:05 AM 32.5°F0.3°C 29.6°F-1.3°C 89% Calm Calm -- 29.80 in1009.1 mb - 0.00 in0.0 mm 0.00 in0.0 mm
03:10 AM 32.5°F0.3°C 29.6°F-1.3°C 89% Calm Calm -- 29.79 in1008.8 mb - 0.00 in0.0 mm 0.00 in0.0 mm
03:15 AM 32.4°F0.2°C 29.5°F-1.4°C 89% Calm Calm -- 29.79 in1008.8 mb - 0.00 in0.0 mm 0.00 in0.0 mm
03:20 AM 32.3°F0.2°C 29.4°F-1.4°C 89% Calm Calm -- 29.79 in1008.8 mb - 0.00 in0.0 mm 0.00 in0.0 mm
03:25 AM 32.2°F0.1°C 29.3°F-1.5°C 89% Calm Calm -- 29.79 in1008.8 mb - 0.00 in0.0 mm 0.00 in0.0 mm
03:30 AM 32.1°F0.1°C 29.2°F-1.6°C 89% Calm Calm -- 29.79 in1008.8 mb - 0.00 in0.0 mm 0.00 in0.0 mm
03:35 AM 32.0°F0.0°C 29.4°F-1.4°C 90% Calm Calm -- 29.79 in1008.8 mb - 0.00 in0.0 mm 0.00 in0.0 mm
03:40 AM 31.9°F-0.1°C 29.0°F-1.7°C 89% Calm Calm -- 29.79 in1008.8 mb - 0.00 in0.0 mm 0.00 in0.0 mm
03:45 AM 31.7°F-0.2°C 28.9°F-1.7°C 89% Calm Calm -- 29.79 in1008.8 mb - 0.00 in0.0 mm 0.00 in0.0 mm
03:50 AM 31.6°F-0.2°C 29.0°F-1.7°C 90% Calm Calm -- 29.79 in1008.8 mb - 0.00 in0.0 mm 0.00 in0.0 mm
03:55 AM 31.6°F-0.2°C 29.0°F-1.7°C 90% Calm Calm -- 29.79 in1008.8 mb - 0.00 in0.0 mm 0.00 in0.0 mm
04:00 AM 31.5°F-0.3°C 28.9°F-1.7°C 90% Calm Calm -- 29.79 in1008.8 mb - 0.00 in0.0 mm 0.00 in0.0 mm
04:05 AM 31.4°F-0.3°C 28.8°F-1.8°C 90% Calm Calm -- 29.79 in1008.8 mb - 0.00 in0.0 mm 0.00 in0.0 mm
04:10 AM 31.2°F-0.4°C 28.6°F-1.9°C 90% Calm Calm -- 29.79 in1008.8 mb - 0.00 in0.0 mm 0.00 in0.0 mm
04:15 AM 31.1°F-0.5°C 28.5°F-1.9°C 90% Calm Calm -- 29.79 in1008.8 mb - 0.00 in0.0 mm 0.00 in0.0 mm
04:20 AM 31.0°F-0.6°C 28.4°F-2.0°C 90% Calm Calm -- 29.79 in1008.8 mb - 0.00 in0.0 mm 0.00 in0.0 mm
04:25 AM 30.8°F-0.7°C 28.2°F-2.1°C 90% Calm Calm -- 29.79 in1008.8 mb - 0.00 in0.0 mm 0.00 in0.0 mm
04:30 AM 30.8°F-0.7°C 28.2°F-2.1°C 90% Calm Calm 1.2 mph1.9 kmh 29.79 in1008.8 mb - 0.00 in0.0 mm 0.00 in0.0 mm
04:35 AM 30.8°F-0.7°C 28.2°F-2.1°C 90% Calm Calm -- 29.79 in1008.8 mb - 0.00 in0.0 mm 0.00 in0.0 mm
04:40 AM 30.8°F-0.7°C 28.2°F-2.1°C 90% Calm Calm -- 29.79 in1008.8 mb - 0.00 in0.0 mm 0.00 in0.0 mm
04:45 AM 30.8°F-0.7°C 28.2°F-2.1°C 90% Calm Calm -- 29.79 in1008.8 mb - 0.00 in0.0 mm 0.00 in0.0 mm
04:50 AM 30.8°F-0.7°C 28.2°F-2.1°C 90% Calm Calm -- 29.79 in1008.8 mb - 0.00 in0.0 mm 0.00 in0.0 mm
04:55 AM 30.8°F-0.7°C 28.5°F-1.9°C 91% Calm Calm -- 29.79 in1008.8 mb - 0.00 in0.0 mm 0.00 in0.0 mm
05:00 AM 31.0°F-0.6°C 28.7°F-1.8°C 91% Calm Calm -- 29.79 in1008.8 mb - 0.00 in0.0 mm 0.00 in0.0 mm
05:05 AM 31.0°F-0.6°C 28.7°F-1.8°C 91% Calm Calm -- 29.79 in1008.8 mb - 0.00 in0.0 mm 0.00 in0.0 mm
05:10 AM 31.1°F-0.5°C 28.8°F-1.8°C 91% Calm Calm -- 29.79 in1008.8 mb - 0.00 in0.0 mm 0.00 in0.0 mm
05:15 AM 31.1°F-0.5°C 28.5°F-1.9°C 90% 2.3 mph N3.7 kmh N 3.5 mph5.6 kmh 29.79 in1008.8 mb - 0.00 in0.0 mm 0.00 in0.0 mm
05:20 AM 31.1°F-0.5°C 28.5°F-1.9°C 90% 2.3 mph NNE3.7 kmh NNE 3.5 mph5.6 kmh 29.79 in1008.8 mb - 0.00 in0.0 mm 0.00 in0.0 mm
05:25 AM 31.2°F-0.4°C 28.6°F-1.9°C 90% Calm Calm -- 29.79 in1008.8 mb - 0.00 in0.0 mm 0.00 in0.0 mm
05:30 AM 31.2°F-0.4°C 28.9°F-1.7°C 91% Calm Calm -- 29.78 in1008.5 mb - 0.00 in0.0 mm 0.00 in0.0 mm
05:35 AM 31.4°F-0.3°C 29.1°F-1.6°C 91% Calm Calm 2.3 mph3.7 kmh 29.78 in1008.5 mb - 0.00 in0.0 mm 0.00 in0.0 mm
05:40 AM 31.6°F-0.2°C 29.2°F-1.6°C 91% Calm Calm -- 29.78 in1008.5 mb - 0.00 in0.0 mm 0.00 in0.0 mm
05:45 AM 31.7°F-0.2°C 29.1°F-1.6°C 90% Calm Calm -- 29.78 in1008.5 mb - 0.00 in0.0 mm 0.00 in0.0 mm
05:50 AM 31.7°F-0.2°C 29.1°F-1.6°C 90% Calm Calm -- 29.78 in1008.5 mb - 0.00 in0.0 mm 0.00 in0.0 mm
05:55 AM 31.6°F-0.2°C 29.0°F-1.7°C 90% Calm Calm -- 29.78 in1008.5 mb - 0.00 in0.0 mm 0.00 in0.0 mm
06:00 AM 31.5°F-0.3°C 28.9°F-1.7°C 90% Calm Calm -- 29.78 in1008.5 mb - 0.00 in0.0 mm 0.00 in0.0 mm
06:05 AM 31.4°F-0.3°C 28.8°F-1.8°C 90% Calm Calm -- 29.78 in1008.5 mb - 0.00 in0.0 mm 0.00 in0.0 mm
06:10 AM 31.2°F-0.4°C 28.6°F-1.9°C 90% Calm Calm -- 29.78 in1008.5 mb - 0.00 in0.0 mm 0.00 in0.0 mm
06:15 AM 31.0°F-0.6°C 28.4°F-2.0°C 90% Calm Calm -- 29.78 in1008.5 mb - 0.00 in0.0 mm 0.00 in0.0 mm
06:20 AM 30.9°F-0.6°C 28.3°F-2.1°C 90% Calm Calm -- 29.77 in1008.1 mb - 0.00 in0.0 mm 0.00 in0.0 mm
06:25 AM 30.8°F-0.7°C 28.2°F-2.1°C 90% Calm Calm -- 29.77 in1008.1 mb - 0.00 in0.0 mm 0.00 in0.0 mm
06:30 AM 30.8°F-0.7°C 28.2°F-2.1°C 90% Calm Calm -- 29.77 in1008.1 mb - 0.00 in0.0 mm 0.00 in0.0 mm
06:35 AM 30.8°F-0.7°C 28.2°F-2.1°C 90% Calm Calm -- 29.77 in1008.1 mb - 0.00 in0.0 mm 0.00 in0.0 mm
06:40 AM 30.9°F-0.6°C 28.6°F-1.9°C 91% Calm Calm -- 29.77 in1008.1 mb - 0.00 in0.0 mm 0.00 in0.0 mm
06:45 AM 31.0°F-0.6°C 28.7°F-1.8°C 91% Calm Calm -- 29.77 in1008.1 mb - 0.00 in0.0 mm 0.00 in0.0 mm
06:50 AM 31.0°F-0.6°C 28.7°F-1.8°C 91% Calm Calm -- 29.77 in1008.1 mb - 0.00 in0.0 mm 0.00 in0.0 mm
06:55 AM 31.0°F-0.6°C 28.7°F-1.8°C 91% Calm Calm -- 29.77 in1008.1 mb - 0.00 in0.0 mm 0.00 in0.0 mm
07:00 AM 31.1°F-0.5°C 28.8°F-1.8°C 91% Calm Calm -- 29.77 in1008.1 mb - 0.00 in0.0 mm 0.00 in0.0 mm
07:05 AM 31.1°F-0.5°C 28.8°F-1.8°C 91% Calm Calm -- 29.77 in1008.1 mb - 0.00 in0.0 mm 0.00 in0.0 mm
07:10 AM 31.2°F-0.4°C 28.9°F-1.7°C 91% Calm Calm 2.3 mph3.7 kmh 29.77 in1008.1 mb - 0.00 in0.0 mm 0.00 in0.0 mm
07:15 AM 31.4°F-0.3°C 29.1°F-1.6°C 91% Calm Calm 1.2 mph1.9 kmh 29.77 in1008.1 mb - 0.00 in0.0 mm 0.00 in0.0 mm
07:20 AM 31.5°F-0.3°C 29.2°F-1.6°C 91% Calm Calm 1.2 mph1.9 kmh 29.77 in1008.1 mb - 0.00 in0.0 mm 0.00 in0.0 mm
07:25 AM 31.9°F-0.1°C 29.6°F-1.3°C 91% Calm Calm 5.8 mph9.3 kmh 29.77 in1008.1 mb - 0.00 in0.0 mm 0.00 in0.0 mm
07:30 AM 32.5°F0.3°C 30.2°F-1.0°C 91% 1.2 mph SSE1.9 kmh SSE 3.5 mph5.6 kmh 29.76 in1007.8 mb - 0.00 in0.0 mm 0.00 in0.0 mm
07:35 AM 33.6°F0.9°C 31.3°F-0.4°C 91% 1.2 mph WSW1.9 kmh WSW 3.5 mph5.6 kmh 29.76 in1007.8 mb - 0.00 in0.0 mm 0.00 in0.0 mm
07:40 AM 34.3°F1.3°C 31.7°F-0.2°C 90% Calm Calm -- 29.76 in1007.8 mb - 0.00 in0.0 mm 0.00 in0.0 mm
07:45 AM 34.7°F1.5°C 31.8°F-0.1°C 89% Calm Calm 1.2 mph1.9 kmh 29.77 in1008.1 mb - 0.00 in0.0 mm 0.00 in0.0 mm
07:50 AM 34.9°F1.6°C 31.7°F-0.2°C 88% 1.2 mph NW1.9 kmh NW 3.5 mph5.6 kmh 29.76 in1007.8 mb - 0.00 in0.0 mm 0.00 in0.0 mm
07:55 AM 35.0°F1.7°C 31.8°F-0.1°C 88% 1.2 mph NNW1.9 kmh NNW 2.3 mph3.7 kmh 29.77 in1008.1 mb - 0.00 in0.0 mm 0.00 in0.0 mm
08:00 AM 35.1°F1.7°C 31.6°F-0.2°C 87% 1.2 mph NNW1.9 kmh NNW 3.5 mph5.6 kmh 29.76 in1007.8 mb - 0.00 in0.0 mm 0.00 in0.0 mm
08:05 AM 35.0°F1.7°C 31.5°F-0.3°C 87% Calm Calm -- 29.77 in1008.1 mb - 0.00 in0.0 mm 0.00 in0.0 mm
08:10 AM 35.0°F1.7°C 31.8°F-0.1°C 88% Calm Calm -- 29.76 in1007.8 mb - 0.00 in0.0 mm 0.00 in0.0 mm
08:15 AM 34.9°F1.6°C 31.8°F-0.1°C 88% Calm Calm -- 29.76 in1007.8 mb - 0.00 in0.0 mm 0.00 in0.0 mm
08:20 AM 35.0°F1.7°C 31.8°F-0.1°C 88% Calm Calm -- 29.77 in1008.1 mb - 0.00 in0.0 mm 0.00 in0.0 mm
08:25 AM 35.1°F1.7°C 31.9°F-0.1°C 88% Calm Calm -- 29.77 in1008.1 mb - 0.00 in0.0 mm 0.00 in0.0 mm
08:30 AM 35.3°F1.8°C 32.1°F0.1°C 88% Calm Calm -- 29.77 in1008.1 mb - 0.00 in0.0 mm 0.00 in0.0 mm
08:35 AM 35.5°F1.9°C 32.3°F0.2°C 88% Calm Calm -- 29.77 in1008.1 mb - 0.00 in0.0 mm 0.00 in0.0 mm
08:40 AM 35.7°F2.1°C 32.5°F0.3°C 88% Calm Calm -- 29.77 in1008.1 mb - 0.00 in0.0 mm 0.00 in0.0 mm
08:45 AM 35.9°F2.2°C 32.7°F0.4°C 88% Calm Calm -- 29.76 in1007.8 mb - 0.00 in0.0 mm 0.00 in0.0 mm
08:50 AM 36.0°F2.2°C 32.8°F0.4°C 88% Calm Calm -- 29.76 in1007.8 mb - 0.00 in0.0 mm 0.00 in0.0 mm
08:55 AM 36.2°F2.3°C 33.0°F0.6°C 88% Calm Calm -- 29.76 in1007.8 mb - 0.00 in0.0 mm 0.00 in0.0 mm
09:00 AM 36.4°F2.4°C 33.2°F0.7°C 88% 2.3 mph S3.7 kmh S 3.5 mph5.6 kmh 29.76 in1007.8 mb - 0.00 in0.0 mm 0.00 in0.0 mm
09:05 AM 37.0°F2.8°C 33.5°F0.8°C 87% 3.5 mph SSW5.6 kmh SSW 6.9 mph11.1 kmh 29.76 in1007.8 mb - 0.00 in0.0 mm 0.00 in0.0 mm
09:10 AM 38.1°F3.4°C 33.7°F0.9°C 84% 4.6 mph SSW7.4 kmh SSW 9.2 mph14.8 kmh 29.76 in1007.8 mb - 0.00 in0.0 mm 0.00 in0.0 mm
09:15 AM 38.8°F3.8°C 33.8°F1.0°C 82% 3.5 mph SSW5.6 kmh SSW 4.6 mph7.4 kmh 29.76 in1007.8 mb - 0.00 in0.0 mm 0.00 in0.0 mm
09:20 AM 39.1°F3.9°C 34.1°F1.2°C 82% 4.6 mph SW7.4 kmh SW 4.6 mph7.4 kmh 29.76 in1007.8 mb - 0.00 in0.0 mm 0.00 in0.0 mm
09:25 AM 39.3°F4.1°C 33.9°F1.1°C 81% 3.5 mph SSW5.6 kmh SSW 4.6 mph7.4 kmh 29.76 in1007.8 mb - 0.00 in0.0 mm 0.00 in0.0 mm
09:30 AM 39.6°F4.2°C 33.9°F1.1°C 80% 3.5 mph SW5.6 kmh SW 4.6 mph7.4 kmh 29.76 in1007.8 mb - 0.00 in0.0 mm 0.00 in0.0 mm
09:35 AM 39.9°F4.4°C 33.9°F1.1°C 79% 2.3 mph SW3.7 kmh SW 3.5 mph5.6 kmh 29.76 in1007.8 mb - 0.00 in0.0 mm 0.00 in0.0 mm
09:40 AM 40.2°F4.6°C 34.2°F1.2°C 79% 1.2 mph SW1.9 kmh SW 3.5 mph5.6 kmh 29.76 in1007.8 mb - 0.00 in0.0 mm 0.00 in0.0 mm
09:45 AM 40.5°F4.7°C 34.2°F1.2°C 78% 4.6 mph SW7.4 kmh SW 8.1 mph13.0 kmh 29.76 in1007.8 mb - 0.00 in0.0 mm 0.00 in0.0 mm
09:50 AM 40.7°F4.8°C 34.4°F1.3°C 78% 2.3 mph S3.7 kmh S 2.3 mph3.7 kmh 29.76 in1007.8 mb - 0.00 in0.0 mm 0.00 in0.0 mm
09:55 AM 40.8°F4.9°C 34.1°F1.2°C 77% 2.3 mph SSW3.7 kmh SSW 3.5 mph5.6 kmh 29.76 in1007.8 mb - 0.00 in0.0 mm 0.00 in0.0 mm
10:00 AM 40.9°F4.9°C 34.2°F1.2°C 77% 2.3 mph SW3.7 kmh SW 3.5 mph5.6 kmh 29.76 in1007.8 mb - 0.00 in0.0 mm 0.00 in0.0 mm
10:05 AM 40.8°F4.9°C 34.5°F1.4°C 78% 2.3 mph SSW3.7 kmh SSW 3.5 mph5.6 kmh 29.76 in1007.8 mb - 0.00 in0.0 mm 0.00 in0.0 mm
10:10 AM 40.8°F4.9°C 34.5°F1.4°C 78% 2.3 mph SSW3.7 kmh SSW 3.5 mph5.6 kmh 29.76 in1007.8 mb - 0.00 in0.0 mm 0.00 in0.0 mm
10:15 AM 40.7°F4.8°C 34.4°F1.3°C 78% 2.3 mph S3.7 kmh S 3.5 mph5.6 kmh 29.76 in1007.8 mb - 0.00 in0.0 mm 0.00 in0.0 mm
10:20 AM 40.6°F4.8°C 34.3°F1.3°C 78% 1.2 mph SW1.9 kmh SW 2.3 mph3.7 kmh 29.76 in1007.8 mb - 0.00 in0.0 mm 0.00 in0.0 mm
10:25 AM 40.6°F4.8°C 34.3°F1.3°C 78% Calm Calm -- 29.77 in1008.1 mb - 0.00 in0.0 mm 0.00 in0.0 mm
10:30 AM 40.6°F4.8°C 34.6°F1.4°C 79% Calm Calm 1.2 mph1.9 kmh 29.77 in1008.1 mb - 0.00 in0.0 mm 0.00 in0.0 mm
10:35 AM 40.7°F4.8°C 34.7°F1.5°C 79% Calm Calm 2.3 mph3.7 kmh 29.77 in1008.1 mb - 0.00 in0.0 mm 0.00 in0.0 mm
10:40 AM 40.8°F4.9°C 34.8°F1.6°C 79% Calm Calm -- 29.77 in1008.1 mb - 0.00 in0.0 mm 0.00 in0.0 mm
10:45 AM 40.9°F4.9°C 35.5°F1.9°C 81% Calm Calm 3.5 mph5.6 kmh 29.76 in1007.8 mb - 0.00 in0.0 mm 0.00 in0.0 mm
10:50 AM 40.8°F4.9°C 35.7°F2.1°C 82% Calm Calm -- 29.76 in1007.8 mb - 0.00 in0.0 mm 0.00 in0.0 mm
10:55 AM 40.7°F4.8°C 35.6°F2.0°C 82% Calm Calm 1.2 mph1.9 kmh 29.76 in1007.8 mb - 0.00 in0.0 mm 0.00 in0.0 mm
11:00 AM 40.6°F4.8°C 35.8°F2.1°C 83% 1.2 mph NNW1.9 kmh NNW 2.3 mph3.7 kmh 29.75 in1007.5 mb - 0.00 in0.0 mm 0.00 in0.0 mm
11:05 AM 40.5°F4.7°C 36.0°F2.2°C 84% 1.2 mph N1.9 kmh N 3.5 mph5.6 kmh 29.75 in1007.5 mb - 0.00 in0.0 mm 0.00 in0.0 mm
11:10 AM 40.4°F4.7°C 35.9°F2.2°C 84% 2.3 mph N3.7 kmh N 3.5 mph5.6 kmh 29.75 in1007.5 mb - 0.00 in0.0 mm 0.00 in0.0 mm
11:15 AM 40.2°F4.6°C 36.1°F2.3°C 85% Calm Calm 2.3 mph3.7 kmh 29.75 in1007.5 mb - 0.00 in0.0 mm 0.00 in0.0 mm
11:20 AM 40.1°F4.5°C 36.0°F2.2°C 85% Calm Calm 1.2 mph1.9 kmh 29.75 in1007.5 mb - 0.00 in0.0 mm 0.00 in0.0 mm
11:25 AM 40.2°F4.6°C 36.3°F2.4°C 86% 2.3 mph N3.7 kmh N 3.5 mph5.6 kmh 29.75 in1007.5 mb - 0.00 in0.0 mm 0.00 in0.0 mm
11:30 AM 40.1°F4.5°C 36.0°F2.2°C 85% 2.3 mph N3.7 kmh N 3.5 mph5.6 kmh 29.75 in1007.5 mb - 0.00 in0.0 mm 0.00 in0.0 mm
11:35 AM 40.1°F4.5°C 36.0°F2.2°C 85% 2.3 mph NNE3.7 kmh NNE 2.3 mph3.7 kmh 29.75 in1007.5 mb - 0.00 in0.0 mm 0.00 in0.0 mm
11:40 AM 40.2°F4.6°C 36.1°F2.3°C 85% Calm Calm -- 29.74 in1007.1 mb - 0.00 in0.0 mm 0.00 in0.0 mm
11:45 AM 40.4°F4.7°C 35.9°F2.2°C 84% Calm Calm -- 29.74 in1007.1 mb - 0.00 in0.0 mm 0.00 in0.0 mm
11:50 AM 40.5°F4.7°C 36.3°F2.4°C 85% Calm Calm -- 29.74 in1007.1 mb - 0.00 in0.0 mm 0.00 in0.0 mm
11:55 AM 40.7°F4.8°C 36.5°F2.5°C 85% Calm Calm 1.2 mph1.9 kmh 29.74 in1007.1 mb - 0.00 in0.0 mm 0.00 in0.0 mm
12:00 PM 40.8°F4.9°C 36.6°F2.6°C 85% Calm Calm 1.2 mph1.9 kmh 29.74 in1007.1 mb - 0.00 in0.0 mm 0.00 in0.0 mm
12:05 PM 40.8°F4.9°C 36.6°F2.6°C 85% 1.2 mph NE1.9 kmh NE 2.3 mph3.7 kmh 29.73 in1006.8 mb - 0.00 in0.0 mm 0.00 in0.0 mm
12:10 PM 40.9°F4.9°C 36.7°F2.6°C 85% Calm Calm -- 29.73 in1006.8 mb - 0.00 in0.0 mm 0.00 in0.0 mm
12:15 PM 40.9°F4.9°C 36.4°F2.4°C 84% 4.6 mph S7.4 kmh S 9.2 mph14.8 kmh 29.73 in1006.8 mb - 0.00 in0.0 mm 0.00 in0.0 mm
12:20 PM 41.2°F5.1°C 35.8°F2.1°C 81% 8.1 mph SW13.0 kmh SW 11.5 mph18.5 kmh 29.74 in1007.1 mb - 0.00 in0.0 mm 0.00 in0.0 mm
12:25 PM 41.6°F5.3°C 35.6°F2.0°C 79% 5.8 mph SSW9.3 kmh SSW 8.1 mph13.0 kmh 29.73 in1006.8 mb - 0.00 in0.0 mm 0.00 in0.0 mm
12:30 PM 41.6°F5.3°C 35.6°F2.0°C 79% 6.9 mph S11.1 kmh S 9.2 mph14.8 kmh 29.73 in1006.8 mb - 0.00 in0.0 mm 0.00 in0.0 mm
12:35 PM 41.5°F5.3°C 35.8°F2.1°C 80% 4.6 mph S7.4 kmh S 8.1 mph13.0 kmh 29.73 in1006.8 mb - 0.00 in0.0 mm 0.00 in0.0 mm
12:40 PM 41.3°F5.2°C 35.3°F1.8°C 79% 4.6 mph S7.4 kmh S 10.4 mph16.7 kmh 29.73 in1006.8 mb - 0.00 in0.0 mm 0.00 in0.0 mm
12:45 PM 41.1°F5.1°C 35.1°F1.7°C 79% 4.6 mph S7.4 kmh S 8.1 mph13.0 kmh 29.73 in1006.8 mb - 0.01 in0.3 mm 0.01 in0.3 mm
12:50 PM 41.0°F5.0°C 35.3°F1.8°C 80% 3.5 mph S5.6 kmh S 5.8 mph9.3 kmh 29.73 in1006.8 mb - 0.00 in0.0 mm 0.01 in0.3 mm
12:55 PM 40.9°F4.9°C 35.2°F1.8°C 80% 2.3 mph SSE3.7 kmh SSE 5.8 mph9.3 kmh 29.72 in1006.4 mb - 0.00 in0.0 mm 0.01 in0.3 mm
01:00 PM 40.9°F4.9°C 35.2°F1.8°C 80% 5.8 mph SSE9.3 kmh SSE 9.2 mph14.8 kmh 29.72 in1006.4 mb - 0.00 in0.0 mm 0.01 in0.3 mm
01:05 PM 40.7°F4.8°C 35.3°F1.8°C 81% 3.5 mph SSE5.6 kmh SSE 6.9 mph11.1 kmh 29.72 in1006.4 mb - 0.00 in0.0 mm 0.01 in0.3 mm
01:10 PM 40.6°F4.8°C 35.2°F1.8°C 81% 5.8 mph SSE9.3 kmh SSE 10.4 mph16.7 kmh 29.72 in1006.4 mb - 0.00 in0.0 mm 0.01 in0.3 mm
01:15 PM 40.4°F4.7°C 35.3°F1.8°C 82% 5.8 mph S9.3 kmh S 10.4 mph16.7 kmh 29.71 in1006.1 mb - 0.00 in0.0 mm 0.01 in0.3 mm
01:20 PM 40.2°F4.6°C 35.4°F1.9°C 83% 4.6 mph S7.4 kmh S 8.1 mph13.0 kmh 29.71 in1006.1 mb - 0.00 in0.0 mm 0.01 in0.3 mm
01:25 PM 39.8°F4.3°C 35.4°F1.9°C 84% 4.6 mph S7.4 kmh S 6.9 mph11.1 kmh 29.71 in1006.1 mb - 0.00 in0.0 mm 0.01 in0.3 mm
01:30 PM 39.6°F4.2°C 35.4°F1.9°C 85% 3.5 mph S5.6 kmh S 6.9 mph11.1 kmh 29.71 in1006.1 mb - 0.01 in0.3 mm 0.02 in0.5 mm
01:35 PM 39.3°F4.1°C 35.5°F1.9°C 86% 3.5 mph SSW5.6 kmh SSW 5.8 mph9.3 kmh 29.71 in1006.1 mb - 0.01 in0.3 mm 0.02 in0.5 mm
01:40 PM 39.0°F3.9°C 35.2°F1.8°C 86% 1.2 mph S1.9 kmh S 3.5 mph5.6 kmh 29.71 in1006.1 mb - 0.01 in0.3 mm 0.02 in0.5 mm
01:45 PM 38.8°F3.8°C 35.3°F1.8°C 87% 1.2 mph S1.9 kmh S 2.3 mph3.7 kmh 29.71 in1006.1 mb - 0.01 in0.3 mm 0.03 in0.8 mm
01:50 PM 38.7°F3.7°C 35.1°F1.7°C 87% 2.3 mph S3.7 kmh S 4.6 mph7.4 kmh 29.71 in1006.1 mb - 0.01 in0.3 mm 0.04 in1.0 mm
01:55 PM 38.4°F3.6°C 34.8°F1.6°C 87% 2.3 mph SSE3.7 kmh SSE 4.6 mph7.4 kmh 29.71 in1006.1 mb - 0.01 in0.3 mm 0.05 in1.3 mm
02:00 PM 38.1°F3.4°C 34.6°F1.4°C 87% 3.5 mph S5.6 kmh S 4.6 mph7.4 kmh 29.71 in1006.1 mb - 0.02 in0.5 mm 0.06 in1.5 mm
02:05 PM 37.9°F3.3°C 34.7°F1.5°C 88% 4.6 mph SE7.4 kmh SE 8.1 mph13.0 kmh 29.71 in1006.1 mb - 0.01 in0.3 mm 0.06 in1.5 mm
02:10 PM 37.6°F3.1°C 34.4°F1.3°C 88% 4.6 mph S7.4 kmh S 5.8 mph9.3 kmh 29.71 in1006.1 mb - 0.01 in0.3 mm 0.07 in1.8 mm
02:15 PM 37.4°F3.0°C 34.2°F1.2°C 88% 2.3 mph S3.7 kmh S 4.6 mph7.4 kmh 29.71 in1006.1 mb - 0.00 in0.0 mm 0.07 in1.8 mm
02:20 PM 37.3°F2.9°C 34.4°F1.3°C 89% 2.3 mph SSE3.7 kmh SSE 5.8 mph9.3 kmh 29.71 in1006.1 mb - 0.01 in0.3 mm 0.08 in2.0 mm
02:25 PM 37.1°F2.8°C 34.2°F1.2°C 89% 2.3 mph SE3.7 kmh SE 3.5 mph5.6 kmh 29.70 in1005.8 mb - 0.01 in0.3 mm 0.09 in2.3 mm
02:30 PM 37.1°F2.8°C 34.1°F1.2°C 89% 1.2 mph SE1.9 kmh SE 3.5 mph5.6 kmh 29.70 in1005.8 mb - 0.00 in0.0 mm 0.09 in2.3 mm
02:35 PM 37.0°F2.8°C 34.1°F1.2°C 89% 2.3 mph SSE3.7 kmh SSE 3.5 mph5.6 kmh 29.70 in1005.8 mb - 0.02 in0.5 mm 0.10 in2.5 mm
02:40 PM 36.9°F2.7°C 34.0°F1.1°C 89% 2.3 mph SSE3.7 kmh SSE 4.6 mph7.4 kmh 29.70 in1005.8 mb - 0.02 in0.5 mm 0.11 in2.8 mm
02:45 PM 37.0°F2.8°C 34.3°F1.3°C 90% Calm Calm -- 29.70 in1005.8 mb - 0.01 in0.3 mm 0.11 in2.8 mm
02:50 PM 37.0°F2.8°C 34.3°F1.3°C 90% Calm Calm -- 29.70 in1005.8 mb - 0.00 in0.0 mm 0.11 in2.8 mm
02:55 PM 37.1°F2.8°C 34.4°F1.3°C 90% 1.2 mph E1.9 kmh E 3.5 mph5.6 kmh 29.69 in1005.4 mb - 0.01 in0.3 mm 0.12 in3.0 mm
03:00 PM 37.3°F2.9°C 34.6°F1.4°C 90% 1.2 mph E1.9 kmh E 3.5 mph5.6 kmh 29.69 in1005.4 mb - 0.01 in0.3 mm 0.12 in3.0 mm
03:05 PM 37.3°F2.9°C 34.6°F1.4°C 90% 2.3 mph ESE3.7 kmh ESE 3.5 mph5.6 kmh 29.69 in1005.4 mb - 0.00 in0.0 mm 0.12 in3.0 mm
03:10 PM 37.4°F3.0°C 34.7°F1.5°C 90% 2.3 mph E3.7 kmh E 3.5 mph5.6 kmh 29.69 in1005.4 mb - 0.00 in0.0 mm 0.12 in3.0 mm
03:15 PM 37.4°F3.0°C 34.8°F1.6°C 90% 1.2 mph E1.9 kmh E 2.3 mph3.7 kmh 29.69 in1005.4 mb - 0.00 in0.0 mm 0.12 in3.0 mm
03:20 PM 37.5°F3.1°C 34.8°F1.6°C 90% 2.3 mph E3.7 kmh E 3.5 mph5.6 kmh 29.69 in1005.4 mb - 0.00 in0.0 mm 0.12 in3.0 mm
03:25 PM 37.6°F3.1°C 34.9°F1.6°C 90% 1.2 mph E1.9 kmh E 3.5 mph5.6 kmh 29.69 in1005.4 mb - 0.00 in0.0 mm 0.12 in3.0 mm
03:30 PM 37.7°F3.2°C 35.0°F1.7°C 90% 1.2 mph ESE1.9 kmh ESE 3.5 mph5.6 kmh 29.69 in1005.4 mb - 0.00 in0.0 mm 0.12 in3.0 mm
03:35 PM 37.7°F3.2°C 35.0°F1.7°C 90% 1.2 mph ESE1.9 kmh ESE 3.5 mph5.6 kmh 29.68 in1005.1 mb - 0.00 in0.0 mm 0.12 in3.0 mm
03:40 PM 37.7°F3.2°C 35.0°F1.7°C 90% 2.3 mph ESE3.7 kmh ESE 3.5 mph5.6 kmh 29.68 in1005.1 mb - 0.00 in0.0 mm 0.12 in3.0 mm
03:45 PM 37.8°F3.2°C 35.1°F1.7°C 90% 1.2 mph ESE1.9 kmh ESE 3.5 mph5.6 kmh 29.68 in1005.1 mb - 0.00 in0.0 mm 0.12 in3.0 mm
03:50 PM 37.9°F3.3°C 35.2°F1.8°C 90% 2.3 mph SE3.7 kmh SE 4.6 mph7.4 kmh 29.68 in1005.1 mb - 0.00 in0.0 mm 0.12 in3.0 mm
03:55 PM 37.9°F3.3°C 35.5°F1.9°C 91% 4.6 mph SE7.4 kmh SE 6.9 mph11.1 kmh 29.68 in1005.1 mb - 0.00 in0.0 mm 0.12 in3.0 mm
04:00 PM 37.9°F3.3°C 35.2°F1.8°C 90% 2.3 mph SE3.7 kmh SE 3.5 mph5.6 kmh 29.68 in1005.1 mb - 0.00 in0.0 mm 0.12 in3.0 mm
04:05 PM 37.9°F3.3°C 35.2°F1.8°C 90% 3.5 mph ESE5.6 kmh ESE 5.8 mph9.3 kmh 29.68 in1005.1 mb - 0.00 in0.0 mm 0.12 in3.0 mm
04:10 PM 37.9°F3.3°C 35.2°F1.8°C 90% 3.5 mph SE5.6 kmh SE 4.6 mph7.4 kmh 29.67 in1004.7 mb - 0.00 in0.0 mm 0.12 in3.0 mm
04:15 PM 37.8°F3.2°C 35.1°F1.7°C 90% 1.2 mph ESE1.9 kmh ESE 3.5 mph5.6 kmh 29.68 in1005.1 mb - 0.00 in0.0 mm 0.12 in3.0 mm
04:20 PM 37.8°F3.2°C 35.1°F1.7°C 90% 2.3 mph SE3.7 kmh SE 3.5 mph5.6 kmh 29.67 in1004.7 mb - 0.00 in0.0 mm 0.12 in3.0 mm
04:25 PM 37.7°F3.2°C 35.0°F1.7°C 90% 2.3 mph E3.7 kmh E 4.6 mph7.4 kmh 29.67 in1004.7 mb - 0.00 in0.0 mm 0.12 in3.0 mm
04:30 PM 37.5°F3.1°C 34.9°F1.6°C 90% 2.3 mph ESE3.7 kmh ESE 3.5 mph5.6 kmh 29.67 in1004.7 mb - 0.00 in0.0 mm 0.12 in3.0 mm
04:35 PM 37.5°F3.1°C 34.8°F1.6°C 90% 2.3 mph ESE3.7 kmh ESE 2.3 mph3.7 kmh 29.67 in1004.7 mb - 0.00 in0.0 mm 0.12 in3.0 mm
04:40 PM 37.5°F3.1°C 34.8°F1.6°C 90% 2.3 mph E3.7 kmh E 4.6 mph7.4 kmh 29.66 in1004.4 mb - 0.00 in0.0 mm 0.12 in3.0 mm
04:45 PM 37.5°F3.1°C 34.8°F1.6°C 90% 1.2 mph ESE1.9 kmh ESE 3.5 mph5.6 kmh 29.67 in1004.7 mb - 0.00 in0.0 mm 0.12 in3.0 mm
04:50 PM 37.4°F3.0°C 34.8°F1.6°C 90% 2.3 mph E3.7 kmh E 3.5 mph5.6 kmh 29.66 in1004.4 mb - 0.00 in0.0 mm 0.12 in3.0 mm
04:55 PM 37.4°F3.0°C 34.7°F1.5°C 90% Calm Calm 2.3 mph3.7 kmh 29.66 in1004.4 mb - 0.00 in0.0 mm 0.12 in3.0 mm
05:00 PM 37.4°F3.0°C 34.7°F1.5°C 90% Calm Calm 1.2 mph1.9 kmh 29.66 in1004.4 mb - 0.00 in0.0 mm 0.12 in3.0 mm
05:05 PM 37.4°F3.0°C 34.7°F1.5°C 90% 1.2 mph E1.9 kmh E 3.5 mph5.6 kmh 29.66 in1004.4 mb - 0.00 in0.0 mm 0.12 in3.0 mm
05:10 PM 37.3°F2.9°C 34.7°F1.5°C 90% Calm Calm -- 29.66 in1004.4 mb - 0.00 in0.0 mm 0.12 in3.0 mm
05:15 PM 37.3°F2.9°C 34.7°F1.5°C 90% Calm Calm 1.2 mph1.9 kmh 29.66 in1004.4 mb - 0.00 in0.0 mm 0.12 in3.0 mm
05:20 PM 37.3°F2.9°C 34.6°F1.4°C 90% 1.2 mph E1.9 kmh E 3.5 mph5.6 kmh 29.66 in1004.4 mb - 0.00 in0.0 mm 0.12 in3.0 mm
05:25 PM 37.3°F2.9°C 34.6°F1.4°C 90% Calm Calm -- 29.66 in1004.4 mb - 0.00 in0.0 mm 0.12 in3.0 mm
05:30 PM 37.3°F2.9°C 34.6°F1.4°C 90% Calm Calm 2.3 mph3.7 kmh 29.66 in1004.4 mb - 0.00 in0.0 mm 0.12 in3.0 mm
05:35 PM 37.4°F3.0°C 34.7°F1.5°C 90% Calm Calm -- 29.66 in1004.4 mb - 0.00 in0.0 mm 0.12 in3.0 mm
05:40 PM 37.3°F2.9°C 34.6°F1.4°C 90% Calm Calm 1.2 mph1.9 kmh 29.65 in1004.1 mb - 0.00 in0.0 mm 0.12 in3.0 mm
05:45 PM 37.3°F2.9°C 34.9°F1.6°C 91% Calm Calm 2.3 mph3.7 kmh 29.65 in1004.1 mb - 0.00 in0.0 mm 0.12 in3.0 mm
05:50 PM 37.3°F2.9°C 34.9°F1.6°C 91% Calm Calm -- 29.65 in1004.1 mb - 0.00 in0.0 mm 0.12 in3.0 mm
05:55 PM 37.3°F2.9°C 34.9°F1.6°C 91% Calm Calm -- 29.65 in1004.1 mb - 0.00 in0.0 mm 0.12 in3.0 mm
06:00 PM 37.2°F2.9°C 34.8°F1.6°C 91% Calm Calm 2.3 mph3.7 kmh 29.65 in1004.1 mb - 0.01 in0.3 mm 0.13 in3.3 mm
06:05 PM 37.2°F2.9°C 34.8°F1.6°C 91% Calm Calm -- 29.65 in1004.1 mb - 0.00 in0.0 mm 0.13 in3.3 mm
06:10 PM 37.2°F2.9°C 34.8°F1.6°C 91% Calm Calm 3.5 mph5.6 kmh 29.65 in1004.1 mb - 0.00 in0.0 mm 0.13 in3.3 mm
06:15 PM 37.2°F2.9°C 34.8°F1.6°C 91% Calm Calm 1.2 mph1.9 kmh 29.65 in1004.1 mb - 0.00 in0.0 mm 0.13 in3.3 mm
06:20 PM 37.2°F2.9°C 34.8°F1.6°C 91% Calm Calm 1.2 mph1.9 kmh 29.64 in1003.7 mb - 0.00 in0.0 mm 0.13 in3.3 mm
06:25 PM 37.2°F2.9°C 34.8°F1.6°C 91% Calm Calm -- 29.64 in1003.7 mb - 0.00 in0.0 mm 0.13 in3.3 mm
06:30 PM 37.2°F2.9°C 34.8°F1.6°C 91% Calm Calm -- 29.64 in1003.7 mb - 0.00 in0.0 mm 0.13 in3.3 mm
06:35 PM 37.2°F2.9°C 34.8°F1.6°C 91% Calm Calm -- 29.64 in1003.7 mb - 0.00 in0.0 mm 0.13 in3.3 mm
06:40 PM 37.1°F2.8°C 34.7°F1.5°C 91% Calm Calm -- 29.63 in1003.4 mb - 0.00 in0.0 mm 0.13 in3.3 mm
06:45 PM 37.2°F2.9°C 34.8°F1.6°C 91% Calm Calm -- 29.63 in1003.4 mb - 0.00 in0.0 mm 0.13 in3.3 mm
06:50 PM 37.2°F2.9°C 34.8°F1.6°C 91% Calm Calm -- 29.63 in1003.4 mb - 0.00 in0.0 mm 0.13 in3.3 mm
06:55 PM 37.1°F2.8°C 34.7°F1.5°C 91% Calm Calm -- 29.63 in1003.4 mb - 0.00 in0.0 mm 0.13 in3.3 mm
07:00 PM 37.1°F2.8°C 34.7°F1.5°C 91% Calm Calm -- 29.62 in1003.0 mb - 0.00 in0.0 mm 0.13 in3.3 mm
07:05 PM 37.1°F2.8°C 34.7°F1.5°C 91% Calm Calm -- 29.62 in1003.0 mb - 0.00 in0.0 mm 0.13 in3.3 mm
07:10 PM 37.1°F2.8°C 34.7°F1.5°C 91% Calm Calm -- 29.62 in1003.0 mb - 0.00 in0.0 mm 0.13 in3.3 mm
07:15 PM 37.1°F2.8°C 34.7°F1.5°C 91% Calm Calm -- 29.61 in1002.7 mb - 0.00 in0.0 mm 0.13 in3.3 mm
07:20 PM 37.1°F2.8°C 34.7°F1.5°C 91% Calm Calm -- 29.61 in1002.7 mb - 0.00 in0.0 mm 0.13 in3.3 mm
07:25 PM 37.1°F2.8°C 35.0°F1.7°C 92% Calm Calm -- 29.61 in1002.7 mb - 0.00 in0.0 mm 0.13 in3.3 mm
07:30 PM 37.1°F2.8°C 35.0°F1.7°C 92% Calm Calm -- 29.61 in1002.7 mb - 0.00 in0.0 mm 0.13 in3.3 mm
07:35 PM 37.1°F2.8°C 35.0°F1.7°C 92% Calm Calm -- 29.60 in1002.4 mb - 0.00 in0.0 mm 0.13 in3.3 mm
07:40 PM 37.1°F2.8°C 35.0°F1.7°C 92% Calm Calm -- 29.60 in1002.4 mb - 0.00 in0.0 mm 0.13 in3.3 mm
07:45 PM 37.1°F2.8°C 35.0°F1.7°C 92% Calm Calm -- 29.60 in1002.4 mb - 0.00 in0.0 mm 0.13 in3.3 mm
07:50 PM 37.1°F2.8°C 34.7°F1.5°C 91% Calm Calm -- 29.60 in1002.4 mb - 0.00 in0.0 mm 0.13 in3.3 mm
07:55 PM 37.1°F2.8°C 34.7°F1.5°C 91% Calm Calm -- 29.59 in1002.0 mb - 0.00 in0.0 mm 0.13 in3.3 mm
08:00 PM 37.0°F2.8°C 34.6°F1.4°C 91% Calm Calm -- 29.59 in1002.0 mb - 0.00 in0.0 mm 0.13 in3.3 mm
08:05 PM 37.0°F2.8°C 34.6°F1.4°C 91% 1.2 mph E1.9 kmh E 1.2 mph1.9 kmh 29.59 in1002.0 mb - 0.00 in0.0 mm 0.13 in3.3 mm
08:10 PM 37.0°F2.8°C 34.9°F1.6°C 92% Calm Calm -- 29.59 in1002.0 mb - 0.00 in0.0 mm 0.13 in3.3 mm
08:15 PM 37.1°F2.8°C 35.0°F1.7°C 92% Calm Calm -- 29.59 in1002.0 mb - 0.00 in0.0 mm 0.13 in3.3 mm
08:20 PM 37.0°F2.8°C 34.9°F1.6°C 92% Calm Calm -- 29.59 in1002.0 mb - 0.00 in0.0 mm 0.13 in3.3 mm
08:25 PM 37.0°F2.8°C 34.9°F1.6°C 92% Calm Calm -- 29.59 in1002.0 mb - 0.00 in0.0 mm 0.13 in3.3 mm
08:30 PM 37.0°F2.8°C 34.9°F1.6°C 92% Calm Calm -- 29.59 in1002.0 mb - 0.00 in0.0 mm 0.13 in3.3 mm
08:35 PM 36.9°F2.7°C 34.8°F1.6°C 92% Calm Calm -- 29.58 in1001.7 mb - 0.00 in0.0 mm 0.13 in3.3 mm
08:40 PM 36.9°F2.7°C 34.8°F1.6°C 92% Calm Calm -- 29.58 in1001.7 mb - 0.00 in0.0 mm 0.13 in3.3 mm
08:45 PM 36.9°F2.7°C 34.8°F1.6°C 92% Calm Calm -- 29.58 in1001.7 mb - 0.00 in0.0 mm 0.13 in3.3 mm
08:50 PM 36.9°F2.7°C 34.8°F1.6°C 92% Calm Calm -- 29.58 in1001.7 mb - 0.00 in0.0 mm 0.13 in3.3 mm
08:55 PM 36.9°F2.7°C 34.8°F1.6°C 92% Calm Calm -- 29.57 in1001.4 mb - 0.00 in0.0 mm 0.13 in3.3 mm
09:00 PM 36.8°F2.7°C 34.7°F1.5°C 92% Calm Calm -- 29.57 in1001.4 mb - 0.00 in0.0 mm 0.13 in3.3 mm
09:05 PM 36.8°F2.7°C 34.7°F1.5°C 92% Calm Calm -- 29.57 in1001.4 mb - 0.00 in0.0 mm 0.13 in3.3 mm
09:10 PM 36.8°F2.7°C 34.7°F1.5°C 92% Calm Calm -- 29.57 in1001.4 mb - 0.00 in0.0 mm 0.13 in3.3 mm
09:15 PM 36.7°F2.6°C 34.6°F1.4°C 92% Calm Calm -- 29.57 in1001.4 mb - 0.00 in0.0 mm 0.13 in3.3 mm
09:20 PM 36.7°F2.6°C 34.5°F1.4°C 92% Calm Calm -- 29.56 in1001.0 mb - 0.00 in0.0 mm 0.13 in3.3 mm
09:25 PM 36.6°F2.6°C 34.5°F1.4°C 92% Calm Calm -- 29.55 in1000.7 mb - 0.00 in0.0 mm 0.13 in3.3 mm
09:30 PM 36.5°F2.5°C 34.4°F1.3°C 92% Calm Calm -- 29.55 in1000.7 mb - 0.00 in0.0 mm 0.13 in3.3 mm
09:35 PM 36.4°F2.4°C 34.3°F1.3°C 92% Calm Calm -- 29.55 in1000.7 mb - 0.00 in0.0 mm 0.13 in3.3 mm
09:40 PM 36.4°F2.4°C 34.3°F1.3°C 92% Calm Calm -- 29.55 in1000.7 mb - 0.00 in0.0 mm 0.13 in3.3 mm
09:45 PM 36.3°F2.4°C 34.2°F1.2°C 92% Calm Calm -- 29.54 in1000.3 mb - 0.00 in0.0 mm 0.13 in3.3 mm
09:50 PM 36.3°F2.4°C 34.2°F1.2°C 92% Calm Calm -- 29.54 in1000.3 mb - 0.00 in0.0 mm 0.13 in3.3 mm
09:55 PM 36.1°F2.3°C 34.0°F1.1°C 92% Calm Calm -- 29.54 in1000.3 mb - 0.00 in0.0 mm 0.13 in3.3 mm
10:00 PM 36.0°F2.2°C 33.9°F1.1°C 92% Calm Calm -- 29.54 in1000.3 mb - 0.00 in0.0 mm 0.13 in3.3 mm
10:05 PM 35.9°F2.2°C 33.8°F1.0°C 92% Calm Calm -- 29.54 in1000.3 mb - 0.00 in0.0 mm 0.13 in3.3 mm
10:10 PM 35.9°F2.2°C 33.8°F1.0°C 92% Calm Calm -- 29.54 in1000.3 mb - 0.00 in0.0 mm 0.13 in3.3 mm
10:15 PM 35.9°F2.2°C 33.8°F1.0°C 92% Calm Calm -- 29.53 in1000.0 mb - 0.00 in0.0 mm 0.13 in3.3 mm
10:20 PM 35.9°F2.2°C 33.8°F1.0°C 92% Calm Calm -- 29.54 in1000.3 mb - 0.00 in0.0 mm 0.13 in3.3 mm
10:25 PM 35.9°F2.2°C 33.8°F1.0°C 92% Calm Calm -- 29.54 in1000.3 mb - 0.00 in0.0 mm 0.13 in3.3 mm
10:30 PM 35.9°F2.2°C 33.8°F1.0°C 92% Calm Calm -- 29.53 in1000.0 mb - 0.00 in0.0 mm 0.13 in3.3 mm
10:35 PM 35.9°F2.2°C 33.8°F1.0°C 92% Calm Calm -- 29.53 in1000.0 mb - 0.00 in0.0 mm 0.13 in3.3 mm
10:40 PM 35.8°F2.1°C 33.7°F0.9°C 92% Calm Calm -- 29.52 in999.7 mb - 0.00 in0.0 mm 0.13 in3.3 mm
10:45 PM 35.8°F2.1°C 33.7°F0.9°C 92% Calm Calm -- 29.52 in999.7 mb - 0.00 in0.0 mm 0.13 in3.3 mm
10:50 PM 35.8°F2.1°C 33.7°F0.9°C 92% Calm Calm -- 29.52 in999.7 mb - 0.00 in0.0 mm 0.13 in3.3 mm
10:55 PM 35.8°F2.1°C 33.7°F0.9°C 92% Calm Calm -- 29.52 in999.7 mb - 0.00 in0.0 mm 0.13 in3.3 mm
11:00 PM 35.7°F2.1°C 33.9°F1.1°C 93% Calm Calm -- 29.52 in999.7 mb - 0.00 in0.0 mm 0.13 in3.3 mm
11:05 PM 35.7°F2.1°C 33.9°F1.1°C 93% Calm Calm -- 29.52 in999.7 mb - 0.00 in0.0 mm 0.13 in3.3 mm
11:10 PM 35.7°F2.1°C 33.9°F1.1°C 93% Calm Calm -- 29.52 in999.7 mb - 0.00 in0.0 mm 0.13 in3.3 mm
11:15 PM 35.7°F2.1°C 33.9°F1.1°C 93% Calm Calm -- 29.51 in999.3 mb - 0.00 in0.0 mm 0.13 in3.3 mm
11:20 PM 35.7°F2.1°C 33.9°F1.1°C 93% Calm Calm -- 29.51 in999.3 mb - 0.00 in0.0 mm 0.13 in3.3 mm
11:25 PM 35.7°F2.1°C 33.9°F1.1°C 93% Calm Calm -- 29.51 in999.3 mb - 0.00 in0.0 mm 0.13 in3.3 mm
11:30 PM 35.7°F2.1°C 33.9°F1.1°C 93% Calm Calm -- 29.51 in999.3 mb - 0.00 in0.0 mm 0.13 in3.3 mm
11:35 PM 35.7°F2.1°C 33.9°F1.1°C 93% Calm Calm -- 29.50 in999.0 mb - 0.00 in0.0 mm 0.13 in3.3 mm
11:40 PM 35.7°F2.1°C 33.9°F1.1°C 93% Calm Calm -- 29.50 in999.0 mb - 0.00 in0.0 mm 0.13 in3.3 mm
11:45 PM 35.7°F2.1°C 33.9°F1.1°C 93% Calm Calm -- 29.50 in999.0 mb - 0.00 in0.0 mm 0.13 in3.3 mm
11:50 PM 35.7°F2.1°C 33.9°F1.1°C 93% Calm Calm -- 29.50 in999.0 mb - 0.00 in0.0 mm 0.13 in3.3 mm
11:55 PM 35.8°F2.1°C 34.0°F1.1°C 93% Calm Calm -- 29.50 in999.0 mb - 0.00 in0.0 mm 0.13 in3.3 mm